createdAt,value
2017-09-20T00:00:15.575Z,51.7
2017-09-20T00:01:17.030Z,51.7
2017-09-20T00:02:19.188Z,51.3
2017-09-20T00:03:20.628Z,51.3
2017-09-20T00:04:21.766Z,51.3
2017-09-20T00:05:23.187Z,51.4
2017-09-20T00:06:25.317Z,51.5
2017-09-20T00:07:27.112Z,51.4
2017-09-20T00:08:29.238Z,51.4
2017-09-20T00:09:31.367Z,51.3
2017-09-20T00:10:33.158Z,51.7
2017-09-20T00:11:35.290Z,51.3
2017-09-20T00:12:37.415Z,51.3
2017-09-20T00:13:39.206Z,51.4
2017-09-20T00:14:40.641Z,51.7
2017-09-20T00:15:42.081Z,51.6
2017-09-20T00:16:43.520Z,51.3
2017-09-20T00:17:45.292Z,51.6
2017-09-20T00:18:46.416Z,51.3
2017-09-20T00:19:48.544Z,51.7
2017-09-20T00:20:50.002Z,51.4
2017-09-20T00:21:51.795Z,51.4
2017-09-20T00:22:53.254Z,51.3
2017-09-20T00:23:54.689Z,51.6
2017-09-20T00:24:56.479Z,51.3
2017-09-20T00:25:58.607Z,51.3
2017-09-20T00:27:00.731Z,51.6
2017-09-20T00:28:02.861Z,51.7
2017-09-20T00:29:04.645Z,51.3
2017-09-20T00:30:06.760Z,51.3
2017-09-20T00:31:08.555Z,51.3
2017-09-20T00:32:10.684Z,51.3
2017-09-20T00:33:12.478Z,51.3
2017-09-20T00:34:14.269Z,51.3
2017-09-20T00:35:16.439Z,51.3
2017-09-20T00:36:18.567Z,51.3
2017-09-20T00:37:20.027Z,51.3
2017-09-20T00:38:21.465Z,51.4
2017-09-20T00:39:23.237Z,51.3
2017-09-20T00:40:25.028Z,51.7
2017-09-20T00:41:26.816Z,51.6
2017-09-20T00:42:27.921Z,51.7
2017-09-20T00:43:28.688Z,51.7
2017-09-20T00:44:30.145Z,51.1
2017-09-20T00:45:31.581Z,51.4
2017-09-20T00:46:33.020Z,51.3
2017-09-20T00:47:34.457Z,51.7
2017-09-20T00:48:36.250Z,51.3
2017-09-20T00:49:38.043Z,51.2
2017-09-20T00:50:39.482Z,51.7
2017-09-20T00:51:41.617Z,51.2
2017-09-20T00:52:43.074Z,51.7
2017-09-20T00:53:45.204Z,51.3
2017-09-20T00:54:47.332Z,51.4
2017-09-20T00:55:49.122Z,51.2
2017-09-20T00:56:51.250Z,51.3
2017-09-20T00:57:53.378Z,51.6
2017-09-20T00:58:55.526Z,51.2
2017-09-20T00:59:56.962Z,51.3
2017-09-20T01:00:58.732Z,51.2
2017-09-20T01:02:00.178Z,51.5
2017-09-20T01:03:01.971Z,51.3
2017-09-20T01:04:04.101Z,51.1
2017-09-20T01:05:06.229Z,51
2017-09-20T01:06:07.674Z,51.2
2017-09-20T01:07:09.471Z,51.2
2017-09-20T01:08:11.274Z,51.1
2017-09-20T01:09:12.716Z,51.4
2017-09-20T01:10:14.508Z,51.1
2017-09-20T01:11:16.301Z,51.1
2017-09-20T01:12:18.098Z,51.1
2017-09-20T01:13:19.869Z,51
2017-09-20T01:14:22.013Z,51.1
2017-09-20T01:15:23.487Z,51.7
2017-09-20T01:16:25.257Z,51.1
2017-09-20T01:17:26.714Z,51.1
2017-09-20T01:18:28.153Z,51.3
2017-09-20T01:19:30.280Z,51
2017-09-20T01:20:32.072Z,51.1
2017-09-20T01:21:33.861Z,51
2017-09-20T01:22:35.297Z,51.1
2017-09-20T01:23:37.122Z,51
2017-09-20T01:24:39.235Z,51.1
2017-09-20T01:25:41.384Z,51.1
2017-09-20T01:26:43.177Z,51
2017-09-20T01:27:44.636Z,51
2017-09-20T01:28:46.445Z,51
2017-09-20T01:29:48.227Z,51.3
2017-09-20T01:30:49.336Z,50.9
2017-09-20T01:31:50.793Z,51
2017-09-20T01:32:51.562Z,51.6
2017-09-20T01:33:52.999Z,51.1
2017-09-20T01:34:54.791Z,51
2017-09-20T01:35:56.916Z,51.5
2017-09-20T01:36:58.706Z,51.5
2017-09-20T01:38:00.499Z,51.2
2017-09-20T01:39:02.290Z,51
2017-09-20T01:40:04.084Z,51
2017-09-20T01:41:05.851Z,51
2017-09-20T01:42:07.620Z,51
2017-09-20T01:43:09.413Z,51
2017-09-20T01:44:11.205Z,51.5
2017-09-20T01:45:12.642Z,51.5
2017-09-20T01:46:14.432Z,51.5
2017-09-20T01:47:15.895Z,51.5
2017-09-20T01:48:17.690Z,51.1
2017-09-20T01:49:19.148Z,51.2
2017-09-20T01:50:19.921Z,51.2
2017-09-20T01:51:22.047Z,51.5
2017-09-20T01:52:24.174Z,51.2
2017-09-20T01:53:25.968Z,51.1
2017-09-20T01:54:27.761Z,51.1
2017-09-20T01:55:29.220Z,51.1
2017-09-20T01:56:31.014Z,51
2017-09-20T01:57:32.807Z,51.4
2017-09-20T01:58:34.613Z,51.1
2017-09-20T01:59:36.050Z,51.5
2017-09-20T02:00:37.844Z,51
2017-09-20T02:01:39.972Z,51
2017-09-20T02:02:41.764Z,51.1
2017-09-20T02:03:43.904Z,51
2017-09-20T02:04:45.696Z,51
2017-09-20T02:05:47.489Z,51.1
2017-09-20T02:06:49.619Z,51.1
2017-09-20T02:07:51.412Z,51.4
2017-09-20T02:08:53.202Z,51.3
2017-09-20T02:09:54.661Z,51.1
2017-09-20T02:10:56.790Z,51.1
2017-09-20T02:11:58.245Z,51.1
2017-09-20T02:12:59.682Z,50.8
2017-09-20T02:14:01.811Z,50.8
2017-09-20T02:15:03.249Z,50.8
2017-09-20T02:16:04.372Z,50.6
2017-09-20T02:17:06.498Z,50.9
2017-09-20T02:18:08.627Z,51.1
2017-09-20T02:19:10.084Z,50.7
2017-09-20T02:20:11.199Z,50.8
2017-09-20T02:21:12.651Z,51.1
2017-09-20T02:22:14.426Z,50.7
2017-09-20T02:23:15.881Z,51.4
2017-09-20T02:24:18.009Z,51.5
2017-09-20T02:25:19.468Z,51
2017-09-20T02:26:20.926Z,50.8
2017-09-20T02:27:22.718Z,50.7
2017-09-20T02:28:24.934Z,51.3
2017-09-20T02:29:26.524Z,50.7
2017-09-20T02:30:28.317Z,50.8
2017-09-20T02:31:30.108Z,50.7
2017-09-20T02:32:32.236Z,50.8
2017-09-20T02:33:34.026Z,50.7
2017-09-20T02:34:36.152Z,51.4
2017-09-20T02:35:38.280Z,51
2017-09-20T02:36:40.075Z,50.8
2017-09-20T02:37:41.509Z,50.9
2017-09-20T02:38:43.313Z,51.4
2017-09-20T02:39:44.414Z,51
2017-09-20T02:40:46.540Z,50.6
2017-09-20T02:41:48.667Z,51.1
2017-09-20T02:42:50.802Z,50.6
2017-09-20T02:43:52.263Z,51.2
2017-09-20T02:44:53.731Z,51.2
2017-09-20T02:45:55.185Z,50.9
2017-09-20T02:46:56.641Z,50.7
2017-09-20T02:47:58.435Z,51.4
2017-09-20T02:48:59.902Z,50.9
2017-09-20T02:50:01.698Z,50.9
2017-09-20T02:51:03.133Z,50.7
2017-09-20T02:52:04.590Z,50.7
2017-09-20T02:53:06.381Z,50.8
2017-09-20T02:54:08.175Z,50.7
2017-09-20T02:55:09.616Z,50.7
2017-09-20T02:56:11.422Z,50.7
2017-09-20T02:57:13.213Z,50.7
2017-09-20T02:58:15.007Z,51.3
2017-09-20T02:59:16.800Z,51.4
2017-09-20T03:00:18.253Z,50.7
2017-09-20T03:01:20.067Z,50.8
2017-09-20T03:02:21.877Z,50.9
2017-09-20T03:03:23.676Z,50.7
2017-09-20T03:04:25.495Z,50.8
2017-09-20T03:05:27.294Z,50.8
2017-09-20T03:06:28.756Z,51.2
2017-09-20T03:07:30.190Z,50.7
2017-09-20T03:08:31.998Z,50.7
2017-09-20T03:09:34.122Z,50.7
2017-09-20T03:10:36.248Z,51.2
2017-09-20T03:11:38.042Z,50.8
2017-09-20T03:12:39.506Z,50.8
2017-09-20T03:13:41.633Z,50.8
2017-09-20T03:14:43.071Z,50.7
2017-09-20T03:15:44.843Z,50.7
2017-09-20T03:16:46.277Z,50.9
2017-09-20T03:17:48.071Z,50.8
2017-09-20T03:18:49.509Z,50.8
2017-09-20T03:19:50.946Z,50.8
2017-09-20T03:20:52.753Z,51.3
2017-09-20T03:21:54.880Z,50.7
2017-09-20T03:22:56.315Z,50.8
2017-09-20T03:23:58.447Z,51.2
2017-09-20T03:24:59.218Z,50.8
2017-09-20T03:26:01.345Z,50.8
2017-09-20T03:27:03.115Z,50.8
2017-09-20T03:28:04.574Z,50.8
2017-09-20T03:29:06.033Z,51.2
2017-09-20T03:30:07.835Z,50.8
2017-09-20T03:31:09.624Z,50.7
2017-09-20T03:32:11.438Z,51.2
2017-09-20T03:33:12.868Z,50.8
2017-09-20T03:34:14.304Z,50.8
2017-09-20T03:35:15.403Z,50.8
2017-09-20T03:36:17.539Z,51.3
2017-09-20T03:37:19.656Z,50.8
2017-09-20T03:38:21.782Z,50.8
2017-09-20T03:39:23.941Z,50.7
2017-09-20T03:40:25.400Z,50.8
2017-09-20T03:41:27.187Z,50.7
2017-09-20T03:42:28.981Z,50.7
2017-09-20T03:43:30.416Z,51.1
2017-09-20T03:44:32.211Z,50.8
2017-09-20T03:45:34.001Z,50.8
2017-09-20T03:46:35.793Z,50.8
2017-09-20T03:47:37.251Z,51.4
2017-09-20T03:48:39.377Z,50.7
2017-09-20T03:49:40.478Z,50.8
2017-09-20T03:50:41.968Z,51.4
2017-09-20T03:51:43.746Z,50.7
2017-09-20T03:52:45.874Z,50.8
2017-09-20T03:53:47.664Z,51.3
2017-09-20T03:54:49.104Z,51.3
2017-09-20T03:55:51.230Z,50.8
2017-09-20T03:56:52.664Z,50.8
2017-09-20T03:57:54.100Z,50.7
2017-09-20T03:58:55.221Z,50.8
2017-09-20T03:59:56.989Z,50.7
2017-09-20T04:00:58.785Z,50.7
2017-09-20T04:02:00.910Z,51.3
2017-09-20T04:03:02.370Z,50.8
2017-09-20T04:04:03.828Z,50.7
2017-09-20T04:05:05.621Z,50.7
2017-09-20T04:06:07.749Z,50.8
2017-09-20T04:07:09.210Z,50.8
2017-09-20T04:08:10.315Z,51.3
2017-09-20T04:09:12.118Z,51.4
2017-09-20T04:10:13.575Z,50.8
2017-09-20T04:11:15.701Z,50.8
2017-09-20T04:12:17.492Z,51.3
2017-09-20T04:13:19.283Z,50.8
2017-09-20T04:14:21.421Z,50.8
2017-09-20T04:15:23.190Z,50.8
2017-09-20T04:16:25.318Z,51.3
2017-09-20T04:17:27.446Z,51
2017-09-20T04:18:29.244Z,51
2017-09-20T04:19:31.034Z,50.7
2017-09-20T04:20:32.823Z,50.8
2017-09-20T04:21:34.951Z,50.8
2017-09-20T04:22:36.743Z,50.9
2017-09-20T04:23:38.200Z,51
2017-09-20T04:24:40.323Z,51
2017-09-20T04:25:41.781Z,51.1
2017-09-20T04:26:43.550Z,50.7
2017-09-20T04:27:45.009Z,51
2017-09-20T04:28:46.779Z,50.7
2017-09-20T04:29:48.596Z,50.9
2017-09-20T04:30:50.386Z,50.7
2017-09-20T04:31:52.180Z,50.6
2017-09-20T04:32:54.305Z,50.5
2017-09-20T04:33:55.764Z,50.5
2017-09-20T04:34:57.556Z,50.6
2017-09-20T04:35:59.328Z,50.5
2017-09-20T04:37:01.098Z,50.6
2017-09-20T04:38:02.549Z,50.6
2017-09-20T04:39:04.341Z,50.6
2017-09-20T04:40:05.464Z,50.5
2017-09-20T04:41:07.258Z,50.7
2017-09-20T04:42:09.050Z,50.6
2017-09-20T04:43:10.841Z,50.6
2017-09-20T04:44:12.697Z,50.6
2017-09-20T04:45:14.822Z,50.6
2017-09-20T04:46:16.281Z,50.6
2017-09-20T04:47:18.428Z,50.6
2017-09-20T04:48:20.221Z,50.7
2017-09-20T04:49:22.346Z,50.5
2017-09-20T04:50:23.785Z,50.6
2017-09-20T04:51:25.986Z,50.6
2017-09-20T04:52:27.761Z,50.7
2017-09-20T04:53:29.530Z,50.6
2017-09-20T04:54:31.657Z,50.5
2017-09-20T04:55:33.450Z,50.6
2017-09-20T04:56:34.548Z,51
2017-09-20T04:57:36.676Z,50.6
2017-09-20T04:58:38.803Z,50.5
2017-09-20T04:59:40.572Z,50.5
2017-09-20T05:00:41.674Z,50.4
2017-09-20T05:01:43.191Z,51
2017-09-20T05:02:44.982Z,50.5
2017-09-20T05:03:46.441Z,50.5
2017-09-20T05:04:47.896Z,50.8
2017-09-20T05:05:49.339Z,50.7
2017-09-20T05:06:51.124Z,50.6
2017-09-20T05:07:52.898Z,50.5
2017-09-20T05:08:54.693Z,50.3
2017-09-20T05:09:56.829Z,50.4
2017-09-20T05:10:58.613Z,50.4
2017-09-20T05:12:00.741Z,50.3
2017-09-20T05:13:02.533Z,50.4
2017-09-20T05:14:03.300Z,50.3
2017-09-20T05:15:05.091Z,50.2
2017-09-20T05:16:06.886Z,50.1
2017-09-20T05:17:08.658Z,50.2
2017-09-20T05:18:10.782Z,50.3
2017-09-20T05:19:12.560Z,50.6
2017-09-20T05:20:14.350Z,50.1
2017-09-20T05:21:16.144Z,50.2
2017-09-20T05:22:17.939Z,50.4
2017-09-20T05:23:20.069Z,50.3
2017-09-20T05:24:21.505Z,50.1
2017-09-20T05:25:23.284Z,50.4
2017-09-20T05:26:25.411Z,50.3
2017-09-20T05:27:26.513Z,50.3
2017-09-20T05:28:27.975Z,50.7
2017-09-20T05:29:30.104Z,50.3
2017-09-20T05:30:31.900Z,50.4
2017-09-20T05:31:33.696Z,50.4
2017-09-20T05:32:35.129Z,50.7
2017-09-20T05:33:36.587Z,50.5
2017-09-20T05:34:38.715Z,50.4
2017-09-20T05:35:40.844Z,50.4
2017-09-20T05:36:42.280Z,50.6
2017-09-20T05:37:44.074Z,50.4
2017-09-20T05:38:46.199Z,50.4
2017-09-20T05:39:47.321Z,50.7
2017-09-20T05:40:49.096Z,50.5
2017-09-20T05:41:50.557Z,50.5
2017-09-20T05:42:52.007Z,50.6
2017-09-20T05:43:53.108Z,50.2
2017-09-20T05:44:54.562Z,50.3
2017-09-20T05:45:56.362Z,50
2017-09-20T05:46:58.486Z,50
2017-09-20T05:48:00.285Z,50.6
2017-09-20T05:49:01.722Z,50.4
2017-09-20T05:50:03.520Z,50
2017-09-20T05:51:05.313Z,50.5
2017-09-20T05:52:06.752Z,50.1
2017-09-20T05:53:08.525Z,50
2017-09-20T05:54:10.322Z,50.5
2017-09-20T05:55:11.790Z,50.6
2017-09-20T05:56:13.266Z,50.2
2017-09-20T05:57:14.703Z,50.5
2017-09-20T05:58:16.159Z,50.7
2017-09-20T05:59:17.959Z,50.7
2017-09-20T06:00:20.088Z,50.3
2017-09-20T06:01:21.858Z,50.4
2017-09-20T06:02:22.978Z,50.1
2017-09-20T06:03:25.110Z,50.1
2017-09-20T06:04:26.211Z,50.2
2017-09-20T06:05:28.338Z,50.6
2017-09-20T06:06:30.467Z,50.1
2017-09-20T06:07:32.238Z,50.3
2017-09-20T06:08:34.364Z,50.8
2017-09-20T06:09:36.496Z,50.7
2017-09-20T06:10:38.624Z,50.2
2017-09-20T06:11:39.745Z,50.5
2017-09-20T06:12:41.368Z,50.4
2017-09-20T06:13:42.504Z,50.2
2017-09-20T06:14:44.304Z,50.3
2017-09-20T06:15:45.755Z,50.8
2017-09-20T06:16:47.199Z,50.2
2017-09-20T06:17:49.333Z,50.2
2017-09-20T06:18:50.511Z,50.3
2017-09-20T06:19:52.320Z,50.2
2017-09-20T06:20:54.142Z,50.8
2017-09-20T06:21:55.246Z,50.4
2017-09-20T06:22:57.046Z,50.3
2017-09-20T06:23:58.844Z,50.7
2017-09-20T06:25:00.976Z,50.8
2017-09-20T06:26:02.784Z,50.3
2017-09-20T06:27:04.912Z,50.1
2017-09-20T06:28:06.038Z,50.3
2017-09-20T06:29:07.832Z,50.2
2017-09-20T06:30:09.311Z,50.2
2017-09-20T06:31:11.107Z,50.6
2017-09-20T06:32:12.550Z,50.7
2017-09-20T06:33:14.347Z,50.3
2017-09-20T06:34:15.793Z,50.1
2017-09-20T06:35:17.592Z,50.2
2017-09-20T06:36:19.052Z,50.3
2017-09-20T06:37:20.490Z,50.3
2017-09-20T06:38:22.007Z,50.4
2017-09-20T06:39:24.158Z,50.4
2017-09-20T06:40:25.596Z,50.8
2017-09-20T06:41:27.065Z,50.8
2017-09-20T06:42:28.856Z,50.8
2017-09-20T06:43:30.986Z,50.8
2017-09-20T06:44:32.759Z,50.3
2017-09-20T06:45:34.556Z,50.5
2017-09-20T06:46:35.997Z,50.1
2017-09-20T06:47:38.128Z,50.1
2017-09-20T06:48:39.925Z,50.7
2017-09-20T06:49:41.374Z,50.2
2017-09-20T06:50:43.506Z,50.2
2017-09-20T06:51:44.969Z,50.2
2017-09-20T06:52:47.100Z,50.3
2017-09-20T06:53:48.892Z,50.2
2017-09-20T06:54:51.021Z,50.7
2017-09-20T06:55:52.484Z,50.3
2017-09-20T06:56:54.303Z,50.2
2017-09-20T06:57:56.095Z,50.4
2017-09-20T06:58:58.226Z,50.2
2017-09-20T06:59:59.670Z,50.3
2017-09-20T07:01:01.112Z,50.3
2017-09-20T07:02:02.555Z,50.4
2017-09-20T07:03:04.329Z,50.5
2017-09-20T07:04:05.438Z,50.4
2017-09-20T07:05:06.549Z,50.3
2017-09-20T07:06:08.325Z,50.4
2017-09-20T07:07:09.764Z,50.4
2017-09-20T07:08:11.893Z,50.4
2017-09-20T07:09:14.022Z,50.4
2017-09-20T07:10:16.151Z,50.5
2017-09-20T07:11:17.947Z,50.5
2017-09-20T07:12:19.385Z,50.5
2017-09-20T07:13:21.515Z,50.4
2017-09-20T07:14:23.308Z,50.5
2017-09-20T07:15:24.450Z,50.4
2017-09-20T07:16:26.220Z,50.4
2017-09-20T07:17:27.662Z,50.3
2017-09-20T07:18:29.437Z,50.4
2017-09-20T07:19:31.570Z,50.4
2017-09-20T07:20:33.699Z,50.4
2017-09-20T07:21:35.493Z,50.5
2017-09-20T07:22:37.625Z,50.8
2017-09-20T07:23:39.417Z,50.8
2017-09-20T07:24:41.547Z,50.4
2017-09-20T07:25:42.987Z,50.7
2017-09-20T07:26:44.779Z,50.3
2017-09-20T07:27:46.574Z,50.7
2017-09-20T07:28:47.710Z,50.3
2017-09-20T07:29:49.147Z,50.1
2017-09-20T07:30:50.251Z,50.4
2017-09-20T07:31:52.047Z,50.5
2017-09-20T07:32:54.179Z,50.5
2017-09-20T07:33:55.295Z,50.3
2017-09-20T07:34:56.763Z,50.5
2017-09-20T07:35:58.203Z,50.7
2017-09-20T07:36:59.646Z,50.5
2017-09-20T07:38:01.443Z,50.5
2017-09-20T07:39:02.883Z,50.4
2017-09-20T07:40:05.012Z,50.8
2017-09-20T07:41:06.808Z,50.4
2017-09-20T07:42:08.580Z,50.4
2017-09-20T07:43:10.710Z,50.5
2017-09-20T07:44:12.841Z,50.6
2017-09-20T07:45:14.302Z,50.4
2017-09-20T07:46:16.075Z,50.5
2017-09-20T07:47:17.867Z,50.7
2017-09-20T07:48:19.671Z,50.7
2017-09-20T07:49:21.806Z,50.5
2017-09-20T07:50:23.047Z,50.5
2017-09-20T07:51:24.888Z,50.4
2017-09-20T07:52:26.021Z,50.4
2017-09-20T07:53:27.827Z,50.8
2017-09-20T07:54:29.618Z,50.3
2017-09-20T07:55:31.747Z,50.4
2017-09-20T07:56:33.577Z,50.4
2017-09-20T07:57:35.489Z,50.2
2017-09-20T07:58:36.721Z,50.2
2017-09-20T07:59:38.287Z,50.2
2017-09-20T08:00:39.799Z,50.5
2017-09-20T08:01:40.904Z,50.4
2017-09-20T08:02:42.763Z,50.4
2017-09-20T08:03:45.523Z,50.4
2017-09-20T08:04:47.654Z,50.5
2017-09-20T08:05:49.121Z,50.4
2017-09-20T08:06:51.249Z,50.6
2017-09-20T08:07:53.085Z,50.2
2017-09-20T08:08:54.891Z,50.2
2017-09-20T08:09:56.688Z,50.4
2017-09-20T08:10:58.134Z,50.7
2017-09-20T08:11:59.618Z,50.5
2017-09-20T08:13:01.087Z,50.5
2017-09-20T08:14:02.526Z,50.1
2017-09-20T08:15:03.657Z,50.1
2017-09-20T08:16:05.792Z,50.1
2017-09-20T08:17:07.240Z,50.5
2017-09-20T08:18:08.704Z,50.5
2017-09-20T08:19:10.501Z,50.5
2017-09-20T08:20:11.975Z,50.5
2017-09-20T08:21:13.417Z,50.2
2017-09-20T08:22:15.213Z,50.5
2017-09-20T08:23:17.374Z,50.5
2017-09-20T08:24:18.821Z,50.4
2017-09-20T08:25:20.600Z,50.5
2017-09-20T08:26:21.712Z,50.4
2017-09-20T08:27:23.481Z,50.3
2017-09-20T08:28:24.950Z,50.4
2017-09-20T08:29:26.081Z,50.2
2017-09-20T08:30:27.873Z,50.3
2017-09-20T08:31:29.644Z,50.4
2017-09-20T08:32:31.419Z,50.2
2017-09-20T08:33:33.552Z,49.9
2017-09-20T08:34:34.995Z,50.3
2017-09-20T08:35:36.559Z,50.2
2017-09-20T08:36:38.697Z,50.1
2017-09-20T08:37:40.186Z,50.1
2017-09-20T08:38:42.246Z,50.2
2017-09-20T08:39:43.713Z,50.2
2017-09-20T08:40:45.481Z,50.2
2017-09-20T08:41:46.924Z,50.2
2017-09-20T08:42:48.720Z,50.2
2017-09-20T08:43:50.169Z,50
2017-09-20T08:44:52.301Z,49.9
2017-09-20T08:45:54.199Z,50
2017-09-20T08:46:56.340Z,50.1
2017-09-20T08:47:58.138Z,49.9
2017-09-20T08:48:59.581Z,50.1
2017-09-20T08:50:01.381Z,50.2
2017-09-20T08:51:02.931Z,50
2017-09-20T08:52:04.746Z,50.2
2017-09-20T08:53:06.885Z,50.2
2017-09-20T08:54:08.692Z,50.2
2017-09-20T08:55:10.475Z,50.1
2017-09-20T08:56:12.357Z,50.3
2017-09-20T08:57:14.490Z,50.2
2017-09-20T08:58:16.770Z,50.2
2017-09-20T08:59:18.402Z,50.3
2017-09-20T09:00:21.229Z,50.2
2017-09-20T09:01:23.661Z,50.2
2017-09-20T09:02:25.382Z,50.3
2017-09-20T09:03:27.377Z,50.2
2017-09-20T09:04:29.306Z,50.2
2017-09-20T09:05:30.165Z,50
2017-09-20T09:06:31.878Z,50.3
2017-09-20T09:07:34.143Z,50.3
2017-09-20T09:08:36.054Z,50.3
2017-09-20T09:09:38.232Z,50
2017-09-20T09:10:40.458Z,50.1
2017-09-20T09:11:42.297Z,50.2
2017-09-20T09:12:44.596Z,50.2
2017-09-20T09:13:45.802Z,50.2
2017-09-20T09:14:48.169Z,50
2017-09-20T09:15:50.663Z,50.1
2017-09-20T09:16:52.628Z,50
2017-09-20T09:17:54.949Z,50.1
2017-09-20T09:18:56.749Z,50.2
2017-09-20T09:19:58.942Z,50.2
2017-09-20T09:21:00.498Z,50
2017-09-20T09:22:02.226Z,50
2017-09-20T09:23:03.871Z,50
2017-09-20T09:24:05.653Z,50.1
2017-09-20T09:25:07.614Z,50
2017-09-20T09:26:09.680Z,50.2
2017-09-20T09:27:11.601Z,50.1
2017-09-20T09:28:13.396Z,50
2017-09-20T09:29:15.169Z,50.2
2017-09-20T09:30:16.608Z,49.9
2017-09-20T09:31:18.743Z,50
2017-09-20T09:32:20.887Z,49.7
2017-09-20T09:33:22.664Z,49.9
2017-09-20T09:34:24.434Z,49.9
2017-09-20T09:35:26.566Z,49.8
2017-09-20T09:36:28.028Z,49.9
2017-09-20T09:37:29.470Z,50.1
2017-09-20T09:38:30.912Z,50
2017-09-20T09:39:32.383Z,49.9
2017-09-20T09:40:34.516Z,50.4
2017-09-20T09:41:35.954Z,50.2
2017-09-20T09:42:37.421Z,50.3
2017-09-20T09:43:39.192Z,50.2
2017-09-20T09:44:40.630Z,50.2
2017-09-20T09:45:42.088Z,50
2017-09-20T09:46:43.884Z,50.2
2017-09-20T09:47:45.320Z,50.1
2017-09-20T09:48:46.780Z,49.9
2017-09-20T09:49:48.909Z,50.2
2017-09-20T09:50:50.053Z,50
2017-09-20T09:51:51.154Z,50.2
2017-09-20T09:52:52.948Z,50.2
2017-09-20T09:53:54.082Z,50
2017-09-20T09:54:56.209Z,50.1
2017-09-20T09:55:57.646Z,50.3
2017-09-20T09:56:59.087Z,50
2017-09-20T09:58:00.554Z,49.9
2017-09-20T09:59:02.348Z,50.3
2017-09-20T10:00:03.809Z,49.9
2017-09-20T10:01:05.608Z,50.1
2017-09-20T10:02:07.048Z,50.1
2017-09-20T10:03:08.828Z,49.9
2017-09-20T10:04:10.959Z,50.4
2017-09-20T10:05:12.412Z,50.2
2017-09-20T10:06:14.545Z,50.2
2017-09-20T10:07:16.694Z,50.2
2017-09-20T10:08:18.828Z,50.2
2017-09-20T10:09:19.930Z,50.1
2017-09-20T10:10:21.391Z,50.2
2017-09-20T10:11:23.522Z,50.1
2017-09-20T10:12:25.318Z,50.2
2017-09-20T10:13:26.778Z,50.3
2017-09-20T10:14:28.248Z,50.1
2017-09-20T10:15:30.063Z,50
2017-09-20T10:16:30.839Z,49.9
2017-09-20T10:17:32.639Z,50.1
2017-09-20T10:18:34.781Z,49.9
2017-09-20T10:19:36.582Z,50
2017-09-20T10:20:38.349Z,49.9
2017-09-20T10:21:40.479Z,50.2
2017-09-20T10:22:42.612Z,50
2017-09-20T10:23:44.745Z,50.2
2017-09-20T10:24:46.190Z,50.1
2017-09-20T10:25:47.636Z,50.4
2017-09-20T10:26:49.770Z,50.2
2017-09-20T10:27:51.571Z,50.2
2017-09-20T10:28:53.368Z,50.1
2017-09-20T10:29:55.160Z,50.4
2017-09-20T10:30:56.955Z,50
2017-09-20T10:31:58.735Z,50.3
2017-09-20T10:32:59.836Z,50.2
2017-09-20T10:34:01.271Z,50.5
2017-09-20T10:35:03.066Z,50.2
2017-09-20T10:36:04.531Z,50.3
2017-09-20T10:37:05.967Z,50.4
2017-09-20T10:38:07.760Z,50.3
2017-09-20T10:39:09.196Z,50.1
2017-09-20T10:40:11.327Z,50.6
2017-09-20T10:41:13.460Z,50.3
2017-09-20T10:42:14.901Z,50.6
2017-09-20T10:43:16.028Z,50.5
2017-09-20T10:44:17.488Z,50.6
2017-09-20T10:45:19.265Z,50.3
2017-09-20T10:46:20.723Z,50.5
2017-09-20T10:47:22.187Z,50.5
2017-09-20T10:48:23.289Z,50.4
2017-09-20T10:49:24.063Z,50.4
2017-09-20T10:50:25.522Z,50.4
2017-09-20T10:51:27.321Z,50.1
2017-09-20T10:52:29.121Z,50.5
2017-09-20T10:53:30.577Z,50.5
2017-09-20T10:54:31.702Z,50.1
2017-09-20T10:55:33.834Z,50.3
2017-09-20T10:56:35.638Z,50.4
2017-09-20T10:57:37.797Z,50.3
2017-09-20T10:58:38.886Z,50.5
2017-09-20T10:59:40.705Z,50.3
2017-09-20T11:00:42.499Z,50.3
2017-09-20T11:01:43.937Z,50.3
2017-09-20T11:02:46.064Z,50.3
2017-09-20T11:03:47.170Z,50.2
2017-09-20T11:04:48.961Z,50
2017-09-20T11:05:51.092Z,50
2017-09-20T11:06:52.200Z,50.2
2017-09-20T11:07:53.666Z,50.3
2017-09-20T11:08:54.772Z,50
2017-09-20T11:09:56.567Z,49.9
2017-09-20T11:10:58.363Z,50
2017-09-20T11:12:00.162Z,50
2017-09-20T11:13:01.955Z,49.9
2017-09-20T11:14:03.394Z,50
2017-09-20T11:15:04.857Z,49.8
2017-09-20T11:16:06.652Z,49.7
2017-09-20T11:17:08.426Z,49.8
2017-09-20T11:18:09.881Z,49.8
2017-09-20T11:19:11.335Z,49.9
2017-09-20T11:20:12.874Z,50.1
2017-09-20T11:21:14.645Z,49.8
2017-09-20T11:22:16.778Z,50.1
2017-09-20T11:23:18.555Z,50
2017-09-20T11:24:19.662Z,50.1
2017-09-20T11:25:21.453Z,50.1
2017-09-20T11:26:22.914Z,49.9
2017-09-20T11:27:24.688Z,50.1
2017-09-20T11:28:26.485Z,50.1
2017-09-20T11:29:28.260Z,50.2
2017-09-20T11:30:30.053Z,50
2017-09-20T11:31:31.846Z,50.1
2017-09-20T11:32:33.285Z,50.1
2017-09-20T11:33:35.077Z,50.2
2017-09-20T11:34:37.213Z,50.1
2017-09-20T11:35:39.010Z,49.7
2017-09-20T11:36:40.784Z,49.7
2017-09-20T11:37:42.577Z,49.7
2017-09-20T11:38:43.702Z,49.7
2017-09-20T11:39:45.831Z,49.4
2017-09-20T11:40:47.627Z,49.7
2017-09-20T11:41:49.424Z,49.9
2017-09-20T11:42:50.890Z,49.6
2017-09-20T11:43:52.679Z,50.3
2017-09-20T11:44:54.479Z,49.8
2017-09-20T11:45:55.941Z,49.7
2017-09-20T11:46:57.054Z,50.3
2017-09-20T11:47:58.852Z,50
2017-09-20T11:49:00.629Z,50.1
2017-09-20T11:50:02.065Z,50.1
2017-09-20T11:51:03.504Z,49.8
2017-09-20T11:52:05.300Z,50.2
2017-09-20T11:53:06.762Z,50.1
2017-09-20T11:54:08.569Z,50
2017-09-20T11:55:10.371Z,50.1
2017-09-20T11:56:12.502Z,50.1
2017-09-20T11:57:14.295Z,50.2
2017-09-20T11:58:16.429Z,50
2017-09-20T11:59:17.869Z,49.9
2017-09-20T12:00:19.662Z,50.1
2017-09-20T12:01:21.439Z,49.9
2017-09-20T12:02:23.570Z,49.9
2017-09-20T12:03:25.342Z,49.9
2017-09-20T12:04:27.472Z,49.8
2017-09-20T12:05:29.265Z,50.1
2017-09-20T12:06:31.108Z,49.7
2017-09-20T12:07:32.906Z,49.8
2017-09-20T12:08:34.344Z,50.1
2017-09-20T12:09:35.810Z,49.8
2017-09-20T12:10:37.938Z,49.7
2017-09-20T12:11:39.721Z,50.1
2017-09-20T12:12:41.154Z,50
2017-09-20T12:13:42.930Z,49.8
2017-09-20T12:14:44.743Z,49.9
2017-09-20T12:15:46.515Z,50
2017-09-20T12:16:48.311Z,49.8
2017-09-20T12:17:50.439Z,49.7
2017-09-20T12:18:52.570Z,49.9
2017-09-20T12:19:54.364Z,49.7
2017-09-20T12:20:56.496Z,49.7
2017-09-20T12:21:58.723Z,50.2
2017-09-20T12:22:59.828Z,49.7
2017-09-20T12:24:01.954Z,50.3
2017-09-20T12:25:03.726Z,50
2017-09-20T12:26:05.192Z,49.7
2017-09-20T12:27:06.398Z,49.9
2017-09-20T12:28:08.528Z,50.2
2017-09-20T12:29:10.325Z,49.8
2017-09-20T12:30:11.766Z,49.8
2017-09-20T12:31:13.900Z,49.9
2017-09-20T12:32:15.368Z,49.7
2017-09-20T12:33:17.142Z,50.4
2017-09-20T12:34:19.270Z,49.8
2017-09-20T12:35:21.068Z,50.1
2017-09-20T12:36:22.841Z,49.9
2017-09-20T12:37:24.975Z,49.9
2017-09-20T12:38:26.773Z,49.9
2017-09-20T12:39:27.899Z,50
2017-09-20T12:40:29.697Z,50.1
2017-09-20T12:41:31.139Z,49.9
2017-09-20T12:42:32.580Z,50
2017-09-20T12:43:34.354Z,50.1
2017-09-20T12:44:35.455Z,50.1
2017-09-20T12:45:37.262Z,49.7
2017-09-20T12:46:38.719Z,49.8
2017-09-20T12:47:40.491Z,49.7
2017-09-20T12:48:41.948Z,49.7
2017-09-20T12:49:43.745Z,49.8
2017-09-20T12:50:44.850Z,50
2017-09-20T12:51:46.644Z,49.7
2017-09-20T12:52:48.776Z,49.7
2017-09-20T12:53:50.570Z,49.7
2017-09-20T12:54:52.362Z,49.7
2017-09-20T12:55:54.160Z,49.8
2017-09-20T12:56:55.934Z,50
2017-09-20T12:57:57.392Z,49.7
2017-09-20T12:58:59.190Z,49.7
2017-09-20T12:59:59.958Z,49.8
2017-09-20T13:01:02.085Z,49.8
2017-09-20T13:02:03.575Z,50
2017-09-20T13:03:05.041Z,49.7
2017-09-20T13:04:06.478Z,49.9
2017-09-20T13:05:08.272Z,49.6
2017-09-20T13:06:10.406Z,49.6
2017-09-20T13:07:12.205Z,50
2017-09-20T13:08:14.330Z,50.1
2017-09-20T13:09:16.576Z,49.9
2017-09-20T13:10:18.720Z,49.8
2017-09-20T13:11:20.877Z,49.8
2017-09-20T13:12:23.073Z,50
2017-09-20T13:13:25.288Z,49.8
2017-09-20T13:14:26.726Z,49.9
2017-09-20T13:15:28.861Z,50.1
2017-09-20T13:16:30.987Z,49.8
2017-09-20T13:17:32.782Z,49.9
2017-09-20T13:18:34.226Z,49.7
2017-09-20T13:19:36.505Z,49.7
2017-09-20T13:20:37.947Z,49.7
2017-09-20T13:21:39.058Z,49.7
2017-09-20T13:22:40.166Z,49.9
2017-09-20T13:23:41.272Z,49.9
2017-09-20T13:24:42.375Z,49.9
2017-09-20T13:25:44.535Z,49.7
2017-09-20T13:26:46.664Z,49.7
2017-09-20T13:27:48.457Z,49.7
2017-09-20T13:28:50.233Z,49.8
2017-09-20T13:29:52.367Z,49.7
2017-09-20T13:30:54.161Z,49.8
2017-09-20T13:31:56.289Z,49.9
2017-09-20T13:32:58.104Z,49.8
2017-09-20T13:34:00.225Z,49.9
2017-09-20T13:35:02.121Z,49.8
2017-09-20T13:36:03.562Z,49.7
2017-09-20T13:37:05.357Z,49.7
2017-09-20T13:38:07.492Z,49.7
2017-09-20T13:39:09.264Z,49.7
2017-09-20T13:40:10.724Z,49.7
2017-09-20T13:41:12.165Z,49.7
2017-09-20T13:42:14.296Z,49.7
2017-09-20T13:43:16.074Z,49.7
2017-09-20T13:44:18.200Z,49.7
2017-09-20T13:45:20.344Z,49.7
2017-09-20T13:46:22.140Z,49.7